Time;durP1;ratioP1;P1;durP2;ratioP2;P2;SDS_P1;SDS_P2;PMS_P1;PMS_P2;Temp;Humidity;BMP_temperature;BMP_pressure;BME280_temperature;BME280_humidity;BME280_pressure;Samples;Min_cycle;Max_cycle;Signal;HPM_P1;HPM_P2
2022/08/24 00:02:24;;;;;;;11.82;6.45;;;;;;;;;;5054177;28;20098;-75
2022/08/24 00:04:50;;;;;;;11.57;6.43;;;;;;;;;;5052707;28;20104;-75
2022/08/24 00:07:16;;;;;;;7.97;5.78;;;;;;;;;;5052812;28;20025;-76
2022/08/24 00:09:41;;;;;;;9.40;6.18;;;;;;;;;;5054058;28;20533;-75
2022/08/24 00:12:07;;;;;;;7.05;5.88;;;;;;;;;;5052672;28;20021;-75
2022/08/24 00:14:33;;;;;;;8.73;5.82;;;;;;;;;;5053859;28;20021;-75
2022/08/24 00:16:59;;;;;;;10.45;6.55;;;;;;;;;;5054279;28;20029;-75
2022/08/24 00:19:25;;;;;;;9.98;6.47;;;;;;;;;;5054138;28;20069;-75
2022/08/24 00:21:51;;;;;;;12.52;6.28;;;;;;;;;;5053882;28;20035;-76
2022/08/24 00:24:17;;;;;;;7.80;5.85;;;;;;;;;;5052749;28;20111;-76
2022/08/24 00:26:44;;;;;;;9.55;5.90;;;;;;;;;;5054005;28;20468;-75
2022/08/24 00:29:11;;;;;;;7.22;5.65;;;;;;;;;;5053733;28;20386;-75
2022/08/24 00:31:37;;;;;;;14.23;6.10;;;;;;;;;;5052435;28;20053;-75
2022/08/24 00:34:02;;;;;;;12.77;6.45;;;;;;;;;;5054102;28;20059;-75
2022/08/24 00:36:27;;;;;;;11.85;6.53;;;;;;;;;;5053811;28;20028;-75
2022/08/24 00:38:53;;;;;;;15.90;6.30;;;;;;;;;;5053754;28;20051;-75
2022/08/24 00:41:18;;;;;;;11.10;6.22;;;;;;;;;;5053476;28;20025;-75
2022/08/24 00:43:59;;;;;;;11.10;6.22;;;;;;;;;;5053429;28;20032;-75
2022/08/24 00:46:57;;;;;;;13.18;6.15;;;;;;;;;;5053347;28;20032;-76
2022/08/24 00:49:38;;;;;;;13.15;5.93;;;;;;;;;;5053624;28;20024;-75
2022/08/24 00:52:09;;;;;;;8.98;6.32;;;;;;;;;;5053360;28;20025;-75
2022/08/24 00:54:40;;;;;;;9.85;5.97;;;;;;;;;;5053481;28;20029;-76
2022/08/24 00:57:09;;;;;;;12.75;6.45;;;;;;;;;;5053235;28;20021;-76
2022/08/24 00:59:40;;;;;;;10.48;6.55;;;;;;;;;;5051980;28;20040;-75
2022/08/24 01:02:10;;;;;;;7.63;6.30;;;;;;;;;;5053271;28;20056;-75
2022/08/24 01:04:42;;;;;;;10.32;6.25;;;;;;;;;;5052051;28;20029;-76
2022/08/24 01:07:08;;;;;;;11.45;6.80;;;;;;;;;;5053391;28;20492;-76
2022/08/24 01:09:33;;;;;;;9.10;6.47;;;;;;;;;;5053115;28;20206;-76
2022/08/24 01:11:59;;;;;;;8.73;6.32;;;;;;;;;;5053070;28;20036;-76
2022/08/24 01:14:24;;;;;;;12.90;6.57;;;;;;;;;;5051323;28;20033;-75
2022/08/24 01:19:42;;;;;;;9.02;6.78;;;;;;;;;;5053322;28;20056;-75
2022/08/24 01:22:31;;;;;;;;;;;;;;;;;;5053699;28;20025;-76
2022/08/24 01:24:57;;;;;;;8.43;6.10;;;;;;;;;;5052939;28;19948;-75
2022/08/24 01:27:23;;;;;;;12.50;6.45;;;;;;;;;;5052799;28;20549;-76
2022/08/24 01:29:49;;;;;;;10.15;6.50;;;;;;;;;;5052862;28;20024;-75
2022/08/24 01:32:15;;;;;;;10.90;7.07;;;;;;;;;;5051522;28;20033;-75
2022/08/24 01:34:40;;;;;;;9.43;6.35;;;;;;;;;;5052758;28;20083;-75
2022/08/24 01:37:09;;;;;;;12.00;6.43;;;;;;;;;;5051486;28;20021;-76
2022/08/24 01:39:45;;;;;;;12.93;6.35;;;;;;;;;;5052772;28;20036;-75
2022/08/24 01:42:13;;;;;;;10.77;6.72;;;;;;;;;;5052822;28;20422;-75
2022/08/24 01:44:40;;;;;;;10.05;6.65;;;;;;;;;;5051459;28;20490;-76
2022/08/24 01:47:08;;;;;;;10.52;6.85;;;;;;;;;;5051328;28;20040;-75
2022/08/24 01:49:36;;;;;;;12.48;6.97;;;;;;;;;;5051640;28;20120;-74
2022/08/24 01:52:02;;;;;;;9.82;6.97;;;;;;;;;;5051401;28;20570;-75
2022/08/24 01:54:27;;;;;;;9.50;6.85;;;;;;;;;;5052626;28;20065;-76
2022/08/24 01:56:52;;;;;;;14.73;6.93;;;;;;;;;;5051463;28;20032;-76
2022/08/24 01:59:19;;;;;;;9.35;6.75;;;;;;;;;;5051344;28;20027;-75
2022/08/24 02:01:48;;;;;;;10.20;7.10;;;;;;;;;;5052828;28;20032;-76
2022/08/24 02:04:14;;;;;;;12.23;6.97;;;;;;;;;;5052492;28;20036;-75
2022/08/24 02:06:40;;;;;;;10.75;7.28;;;;;;;;;;5052507;28;20037;-76
2022/08/24 02:09:05;;;;;;;13.18;7.47;;;;;;;;;;5052432;28;20486;-76
2022/08/24 02:11:31;;;;;;;9.45;6.90;;;;;;;;;;5052475;28;20036;-76
2022/08/24 02:13:57;;;;;;;10.57;7.03;;;;;;;;;;5052312;28;20036;-75
2022/08/24 02:16:22;;;;;;;11.20;7.03;;;;;;;;;;5052474;28;20025;-75
2022/08/24 02:18:48;;;;;;;13.60;7.30;;;;;;;;;;5052401;28;20057;-75
2022/08/24 02:21:13;;;;;;;8.23;6.67;;;;;;;;;;5052444;28;20111;-75
2022/08/24 02:23:40;;;;;;;16.98;7.25;;;;;;;;;;5052280;28;20254;-76
2022/08/24 02:26:07;;;;;;;13.35;7.38;;;;;;;;;;5053906;28;20040;-75
2022/08/24 02:28:33;;;;;;;8.52;7.63;;;;;;;;;;5054673;28;20478;-75
2022/08/24 02:30:58;;;;;;;12.25;7.35;;;;;;;;;;5054690;28;20033;-76
2022/08/24 02:33:23;;;;;;;13.90;7.93;;;;;;;;;;5054685;28;20032;-76
2022/08/24 02:35:50;;;;;;;13.05;7.82;;;;;;;;;;5054508;28;20028;-75
2022/08/24 02:38:16;;;;;;;15.27;7.85;;;;;;;;;;5054559;28;20029;-75
2022/08/24 02:40:42;;;;;;;8.95;6.72;;;;;;;;;;5055771;28;20376;-75
2022/08/24 02:43:07;;;;;;;9.90;8.02;;;;;;;;;;5055990;28;20022;-75
2022/08/24 02:45:40;;;;;;;12.60;7.80;;;;;;;;;;5055548;28;20386;-75
2022/08/24 02:48:05;;;;;;;9.00;7.38;;;;;;;;;;5055983;28;20277;-75
2022/08/24 02:50:31;;;;;;;14.27;7.95;;;;;;;;;;5055609;28;20029;-76
2022/08/24 02:52:56;;;;;;;13.30;7.55;;;;;;;;;;5055799;28;20059;-76
2022/08/24 02:55:21;;;;;;;11.83;8.20;;;;;;;;;;5054116;28;20020;-76
2022/08/24 02:57:47;;;;;;;14.00;8.13;;;;;;;;;;5054130;28;20282;-75
2022/08/24 03:00:15;;;;;;;12.52;7.82;;;;;;;;;;5055397;28;20029;-75
2022/08/24 03:02:40;;;;;;;12.18;7.70;;;;;;;;;;5055615;28;20035;-75
2022/08/24 03:05:07;;;;;;;12.00;8.50;;;;;;;;;;5055131;28;20029;-76
2022/08/24 03:07:33;;;;;;;10.88;7.85;;;;;;;;;;5055166;28;20818;-75
2022/08/24 03:09:58;;;;;;;11.70;8.20;;;;;;;;;;5055186;28;20035;-75
2022/08/24 03:12:23;;;;;;;9.73;8.13;;;;;;;;;;5055188;28;20033;-75
2022/08/24 03:14:48;;;;;;;10.03;8.30;;;;;;;;;;5055036;28;20049;-75
2022/08/24 03:17:13;;;;;;;11.90;8.57;;;;;;;;;;5055008;28;20266;-75
2022/08/24 03:19:39;;;;;;;9.63;7.30;;;;;;;;;;5055037;28;20265;-76
2022/08/24 03:22:04;;;;;;;12.57;7.47;;;;;;;;;;5054985;28;20731;-76
2022/08/24 03:24:30;;;;;;;13.57;7.05;;;;;;;;;;5053538;28;20112;-75
2022/08/24 03:26:55;;;;;;;9.55;7.55;;;;;;;;;;5055036;28;20029;-76
2022/08/24 03:29:20;;;;;;;9.63;6.85;;;;;;;;;;5053618;28;20029;-75
2022/08/24 03:31:46;;;;;;;12.25;7.15;;;;;;;;;;5053693;28;20048;-75
2022/08/24 03:34:12;;;;;;;8.80;7.30;;;;;;;;;;5054828;28;20021;-75
2022/08/24 03:36:39;;;;;;;10.80;7.05;;;;;;;;;;5054430;28;20040;-75
2022/08/24 03:39:04;;;;;;;8.15;6.82;;;;;;;;;;5054758;28;20029;-75
2022/08/24 03:41:29;;;;;;;10.95;7.57;;;;;;;;;;5055072;28;20031;-74
2022/08/24 03:43:55;;;;;;;11.47;7.60;;;;;;;;;;5053291;28;20440;-75
2022/08/24 03:46:25;;;;;;;10.85;6.90;;;;;;;;;;5054760;28;20766;-74
2022/08/24 03:48:51;;;;;;;12.70;6.82;;;;;;;;;;5054561;28;20032;-75
2022/08/24 03:51:18;;;;;;;9.82;7.25;;;;;;;;;;5054418;28;20028;-75
2022/08/24 03:53:44;;;;;;;12.80;7.13;;;;;;;;;;5054338;28;20031;-75
2022/08/24 03:56:10;;;;;;;9.00;7.00;;;;;;;;;;5054414;28;20397;-75
2022/08/24 03:58:37;;;;;;;12.23;7.97;;;;;;;;;;5054365;28;20028;-75
2022/08/24 04:01:04;;;;;;;11.27;7.40;;;;;;;;;;5054449;28;20063;-75
2022/08/24 04:03:29;;;;;;;10.18;7.25;;;;;;;;;;5054646;28;20029;-75
2022/08/24 04:05:54;;;;;;;12.07;7.15;;;;;;;;;;5053893;28;20025;-76
2022/08/24 04:08:20;;;;;;;10.48;6.75;;;;;;;;;;5054409;28;20021;-75
2022/08/24 04:10:45;;;;;;;11.27;7.15;;;;;;;;;;5054210;28;20025;-75
2022/08/24 04:13:11;;;;;;;12.57;7.07;;;;;;;;;;5054020;28;20029;-76
2022/08/24 04:15:40;;;;;;;9.75;7.00;;;;;;;;;;5054207;28;20390;-75
2022/08/24 04:18:06;;;;;;;13.68;7.28;;;;;;;;;;5053910;28;20029;-75
2022/08/24 04:20:40;;;;;;;13.02;7.15;;;;;;;;;;5054186;28;20364;-76
2022/08/24 04:23:06;;;;;;;9.80;7.15;;;;;;;;;;5053866;28;20059;-75
2022/08/24 04:25:38;;;;;;;15.00;7.43;;;;;;;;;;5053712;28;20029;-75
2022/08/24 04:28:05;;;;;;;13.55;7.63;;;;;;;;;;5053996;28;20039;-75
2022/08/24 04:30:30;;;;;;;13.63;7.72;;;;;;;;;;5053917;28;20025;-76
2022/08/24 04:32:56;;;;;;;11.38;7.00;;;;;;;;;;5052451;28;20067;-76
2022/08/24 04:35:21;;;;;;;17.23;7.03;;;;;;;;;;5053548;28;20115;-76
2022/08/24 04:37:46;;;;;;;15.40;7.63;;;;;;;;;;5052328;28;20301;-75
2022/08/24 04:40:12;;;;;;;11.70;7.27;;;;;;;;;;5052182;28;20066;-76
2022/08/24 04:42:37;;;;;;;13.65;7.22;;;;;;;;;;5053778;28;20345;-76
2022/08/24 04:45:03;;;;;;;16.05;8.00;;;;;;;;;;5052058;28;20033;-75
2022/08/24 04:47:28;;;;;;;8.52;6.70;;;;;;;;;;5051768;28;20032;-76
2022/08/24 04:49:54;;;;;;;13.98;7.15;;;;;;;;;;5052912;28;20036;-76
2022/08/24 04:52:19;;;;;;;12.13;7.63;;;;;;;;;;5052004;28;20031;-76
2022/08/24 04:54:44;;;;;;;14.68;7.50;;;;;;;;;;5053297;28;20099;-77
2022/08/24 04:57:09;;;;;;;14.20;7.47;;;;;;;;;;5053264;28;20035;-75
2022/08/24 04:59:35;;;;;;;10.37;7.33;;;;;;;;;;5053154;28;20264;-75
2022/08/24 05:02:00;;;;;;;13.43;7.88;;;;;;;;;;5053313;28;20265;-77
2022/08/24 05:04:25;;;;;;;11.13;7.05;;;;;;;;;;5052935;28;20029;-76
2022/08/24 05:06:50;;;;;;;11.03;7.47;;;;;;;;;;5053302;28;20029;-76
2022/08/24 05:09:17;;;;;;;10.63;7.25;;;;;;;;;;5053229;28;20286;-75
2022/08/24 05:11:42;;;;;;;21.87;8.00;;;;;;;;;;5051944;28;20075;-75
2022/08/24 05:14:07;;;;;;;12.73;7.32;;;;;;;;;;5052952;28;20269;-75
2022/08/24 05:16:36;;;;;;;12.77;7.25;;;;;;;;;;5052993;28;20462;-75
2022/08/24 05:19:02;;;;;;;13.50;7.50;;;;;;;;;;5051669;28;20024;-75
2022/08/24 05:21:27;;;;;;;15.13;7.32;;;;;;;;;;5053248;28;20025;-75
2022/08/24 05:23:52;;;;;;;15.87;7.33;;;;;;;;;;5052851;28;20033;-75
2022/08/24 05:26:24;;;;;;;13.98;7.25;;;;;;;;;;5053119;28;20693;-75
2022/08/24 05:28:53;;;;;;;12.95;7.00;;;;;;;;;;5053171;28;20025;-75
2022/08/24 05:31:21;;;;;;;13.07;7.32;;;;;;;;;;5052968;28;20082;-76
2022/08/24 05:33:47;;;;;;;14.48;7.40;;;;;;;;;;5053069;28;20462;-76
2022/08/24 05:36:20;;;;;;;10.80;7.22;;;;;;;;;;5052916;28;20047;-74
2022/08/24 05:38:47;;;;;;;12.18;7.20;;;;;;;;;;5052084;28;20025;-76
2022/08/24 05:41:14;;;;;;;16.10;7.53;;;;;;;;;;5052836;28;20037;-75
2022/08/24 05:43:39;;;;;;;13.40;7.35;;;;;;;;;;5052890;28;20029;-75
2022/08/24 05:46:05;;;;;;;13.32;7.03;;;;;;;;;;5052535;28;20039;-76
2022/08/24 05:48:34;;;;;;;12.15;6.85;;;;;;;;;;5052564;28;20021;-75
2022/08/24 05:51:00;;;;;;;13.57;7.07;;;;;;;;;;5052947;28;20470;-75
2022/08/24 05:53:25;;;;;;;9.13;6.95;;;;;;;;;;5051256;28;20031;-75
2022/08/24 05:55:50;;;;;;;10.27;7.13;;;;;;;;;;5052595;28;20485;-75
2022/08/24 05:58:15;;;;;;;11.93;7.65;;;;;;;;;;5052510;28;20025;-75
2022/08/24 06:00:44;;;;;;;15.07;7.95;;;;;;;;;;5055418;28;20035;-75
2022/08/24 06:03:13;;;;;;;13.90;7.50;;;;;;;;;;5056552;28;20070;-75
2022/08/24 06:05:40;;;;;;;14.68;7.90;;;;;;;;;;5056120;28;20052;-75
2022/08/24 06:08:05;;;;;;;16.83;8.45;;;;;;;;;;5056266;28;20025;-76
2022/08/24 06:10:32;;;;;;;12.15;7.68;;;;;;;;;;5056420;28;20040;-77
2022/08/24 06:12:57;;;;;;;13.52;7.78;;;;;;;;;;5056426;28;20486;-76
2022/08/24 06:15:22;;;;;;;9.48;7.38;;;;;;;;;;5056034;28;20032;-76
2022/08/24 06:17:47;;;;;;;15.93;7.78;;;;;;;;;;5056276;28;20095;-75
2022/08/24 06:20:14;;;;;;;16.70;7.67;;;;;;;;;;5054734;28;20033;-76
2022/08/24 06:22:42;;;;;;;12.00;7.57;;;;;;;;;;5055803;28;20285;-75
2022/08/24 06:27:51;;;;;;;;;;;;;;;;;;5056231;28;20087;-76
2022/08/24 06:30:17;;;;;;;10.88;7.30;;;;;;;;;;5055833;28;20324;-76
2022/08/24 06:32:42;;;;;;;11.80;7.82;;;;;;;;;;5054494;28;20025;-75
2022/08/24 06:35:08;;;;;;;15.68;8.13;;;;;;;;;;5055856;28;20021;-76
2022/08/24 06:37:33;;;;;;;12.65;8.05;;;;;;;;;;5054594;28;20021;-74
2022/08/24 06:39:59;;;;;;;11.60;7.40;;;;;;;;;;5055696;28;20035;-76
2022/08/24 06:42:28;;;;;;;15.83;7.30;;;;;;;;;;5055662;28;20033;-75
2022/08/24 06:44:53;;;;;;;18.73;7.20;;;;;;;;;;5054365;28;20258;-75
2022/08/24 06:47:18;;;;;;;11.95;7.63;;;;;;;;;;5055635;28;20036;-76
2022/08/24 06:49:44;;;;;;;16.10;7.23;;;;;;;;;;5055522;28;20211;-76
2022/08/24 06:52:12;;;;;;;13.23;7.30;;;;;;;;;;5055716;28;20304;-75
2022/08/24 06:54:38;;;;;;;9.68;6.85;;;;;;;;;;5055258;28;20078;-75
2022/08/24 06:57:04;;;;;;;16.02;6.45;;;;;;;;;;5055219;28;20021;-75
2022/08/24 06:59:30;;;;;;;12.25;7.10;;;;;;;;;;5055218;28;20025;-76
2022/08/24 07:01:56;;;;;;;12.98;7.07;;;;;;;;;;5055331;28;20020;-76
2022/08/24 07:04:23;;;;;;;13.38;7.10;;;;;;;;;;5055091;28;20021;-76
2022/08/24 07:06:49;;;;;;;15.05;7.00;;;;;;;;;;5055210;28;20420;-76
2022/08/24 07:09:15;;;;;;;10.30;7.05;;;;;;;;;;5055223;28;20457;-75
2022/08/24 07:11:40;;;;;;;10.75;7.10;;;;;;;;;;5054500;28;20104;-75
2022/08/24 07:14:06;;;;;;;15.20;7.25;;;;;;;;;;5055382;28;20541;-76
2022/08/24 07:16:32;;;;;;;12.13;7.00;;;;;;;;;;5054740;28;20017;-76
2022/08/24 07:18:58;;;;;;;17.48;7.20;;;;;;;;;;5054807;28;20021;-76
2022/08/24 07:21:23;;;;;;;15.75;7.93;;;;;;;;;;5054908;28;20082;-76
2022/08/24 07:23:52;;;;;;;13.10;7.40;;;;;;;;;;5053827;28;20025;-75
2022/08/24 07:26:21;;;;;;;13.20;8.13;;;;;;;;;;5053248;28;20063;-77
2022/08/24 07:28:47;;;;;;;15.00;7.55;;;;;;;;;;5055363;28;20382;-77
2022/08/24 07:31:12;;;;;;;12.70;7.78;;;;;;;;;;5054781;28;20036;-75
2022/08/24 07:33:38;;;;;;;10.68;6.95;;;;;;;;;;5054554;28;20035;-76
2022/08/24 07:36:04;;;;;;;12.40;7.55;;;;;;;;;;5054805;28;20032;-75
2022/08/24 07:38:29;;;;;;;10.52;6.78;;;;;;;;;;5054611;28;20052;-75
2022/08/24 07:40:54;;;;;;;17.47;7.63;;;;;;;;;;5054870;28;20028;-76
2022/08/24 07:43:20;;;;;;;10.07;6.80;;;;;;;;;;5054350;28;20315;-76
2022/08/24 07:45:46;;;;;;;12.73;7.45;;;;;;;;;;5054245;28;20106;-76
2022/08/24 07:48:11;;;;;;;11.73;6.75;;;;;;;;;;5054180;28;20051;-76
2022/08/24 07:50:37;;;;;;;10.27;6.40;;;;;;;;;;5054324;28;20470;-76
2022/08/24 07:53:02;;;;;;;11.02;7.10;;;;;;;;;;5054688;28;20047;-76
2022/08/24 07:55:27;;;;;;;11.55;7.22;;;;;;;;;;5054231;28;20033;-76
2022/08/24 07:57:53;;;;;;;14.48;6.57;;;;;;;;;;5054524;28;20052;-76
2022/08/24 08:00:19;;;;;;;12.13;6.60;;;;;;;;;;5052865;28;20063;-76
2022/08/24 08:02:45;;;;;;;12.68;7.38;;;;;;;;;;5053610;28;20071;-75
2022/08/24 08:05:12;;;;;;;13.70;6.88;;;;;;;;;;5052373;28;20420;-76
2022/08/24 08:07:37;;;;;;;11.35;6.78;;;;;;;;;;5052493;28;20032;-76
2022/08/24 08:10:03;;;;;;;10.30;6.77;;;;;;;;;;5053932;28;20016;-75
2022/08/24 08:12:28;;;;;;;9.35;6.88;;;;;;;;;;5052464;28;20282;-76
2022/08/24 08:14:53;;;;;;;18.63;6.63;;;;;;;;;;5054293;28;20352;-76
2022/08/24 08:17:18;;;;;;;12.53;6.60;;;;;;;;;;5053668;28;20725;-76
2022/08/24 08:19:44;;;;;;;11.93;6.93;;;;;;;;;;5053714;28;20266;-75
2022/08/24 08:24:53;;;;;;;21.75;7.28;;;;;;;;;;5053021;28;20082;-76
2022/08/24 08:27:20;;;;;;;14.07;6.65;;;;;;;;;;5053315;28;20033;-76
2022/08/24 08:29:47;;;;;;;10.82;6.80;;;;;;;;;;5053771;28;20050;-76
2022/08/24 08:32:15;;;;;;;11.30;6.35;;;;;;;;;;5053486;28;20020;-76
2022/08/24 08:34:41;;;;;;;16.58;7.47;;;;;;;;;;5053570;28;20106;-76
2022/08/24 08:37:07;;;;;;;13.20;6.45;;;;;;;;;;5053432;28;20047;-76
2022/08/24 08:39:32;;;;;;;13.68;7.00;;;;;;;;;;5053899;28;20455;-77
2022/08/24 08:42:14;;;;;;;13.07;7.47;;;;;;;;;;5053522;28;20021;-77
2022/08/24 08:44:59;;;;;;;12.52;7.07;;;;;;;;;;5052656;28;20450;-76
2022/08/24 08:47:42;;;;;;;13.20;7.00;;;;;;;;;;5053661;28;20054;-75
2022/08/24 08:50:24;;;;;;;10.38;7.18;;;;;;;;;;5053659;28;20386;-75
2022/08/24 08:53:01;;;;;;;8.55;6.40;;;;;;;;;;5051888;28;20025;-76
2022/08/24 08:55:50;;;;;;;12.63;6.85;;;;;;;;;;5052093;28;20025;-77
2022/08/24 08:58:46;;;;;;;10.13;6.32;;;;;;;;;;5052285;28;20041;-75
2022/08/24 09:01:23;;;;;;;11.40;6.38;;;;;;;;;;5053219;28;20048;-74
2022/08/24 09:04:05;;;;;;;11.05;6.22;;;;;;;;;;5053091;28;20082;-77
2022/08/24 09:07:01;;;;;;;9.80;5.97;;;;;;;;;;5052931;28;20096;-76
2022/08/24 09:09:47;;;;;;;12.88;6.95;;;;;;;;;;5053104;28;20024;-76
2022/08/24 09:12:28;;;;;;;11.52;6.55;;;;;;;;;;5053473;28;20463;-76
2022/08/24 09:15:05;;;;;;;11.85;6.38;;;;;;;;;;5053049;28;20507;-76
2022/08/24 09:18:24;;;;;;;10.95;6.70;;;;;;;;;;5052791;28;20020;-76
2022/08/24 09:21:07;;;;;;;12.65;6.20;;;;;;;;;;5050774;28;20095;-77
2022/08/24 09:23:47;;;;;;;9.45;5.82;;;;;;;;;;5053105;28;20383;-76
2022/08/24 09:26:29;;;;;;;11.88;6.03;;;;;;;;;;5051405;28;20060;-76
2022/08/24 09:29:15;;;;;;;11.75;5.95;;;;;;;;;;5052601;28;20029;-75
2022/08/24 09:32:23;;;;;;;13.10;6.13;;;;;;;;;;5052672;28;20021;-76
2022/08/24 09:35:08;;;;;;;14.98;6.57;;;;;;;;;;5053443;28;20033;-75
2022/08/24 09:37:48;;;;;;;13.00;5.80;;;;;;;;;;5056806;28;20387;-76
2022/08/24 09:40:45;;;;;;;12.02;5.78;;;;;;;;;;5056846;28;20031;-76
2022/08/24 09:43:30;;;;;;;12.32;6.03;;;;;;;;;;5056030;28;20037;-76
2022/08/24 09:46:37;;;;;;;9.55;5.70;;;;;;;;;;5056576;28;20029;-76
2022/08/24 09:49:21;;;;;;;10.32;5.40;;;;;;;;;;5055499;28;20424;-75
2022/08/24 09:52:15;;;;;;;11.05;5.68;;;;;;;;;;5056786;28;20371;-77
2022/08/24 09:55:03;;;;;;;9.07;5.33;;;;;;;;;;5056278;28;20021;-77
2022/08/24 09:57:53;;;;;;;9.27;5.32;;;;;;;;;;5056553;28;20028;-76
2022/08/24 10:00:26;;;;;;;11.25;5.05;;;;;;;;;;5056696;28;20047;-76
2022/08/24 10:03:05;;;;;;;10.77;5.95;;;;;;;;;;5056608;28;20082;-77
2022/08/24 10:05:48;;;;;;;10.90;4.95;;;;;;;;;;5056116;28;20482;-76
2022/08/24 10:08:38;;;;;;;11.35;5.20;;;;;;;;;;5056393;28;20036;-76
2022/08/24 10:11:24;;;;;;;10.88;5.50;;;;;;;;;;5054787;28;20119;-75
2022/08/24 10:14:16;;;;;;;10.43;5.32;;;;;;;;;;5056324;28;20046;-76
2022/08/24 10:17:20;;;;;;;11.02;6.22;;;;;;;;;;5056239;28;20047;-76
2022/08/24 10:20:22;;;;;;;13.73;6.63;;;;;;;;;;5055666;28;20119;-76
2022/08/24 10:23:00;;;;;;;10.63;6.22;;;;;;;;;;5054652;28;20052;-75
2022/08/24 10:25:28;;;;;;;10.45;6.70;;;;;;;;;;5056142;28;20459;-75
2022/08/24 10:28:34;;;;;;;10.68;6.85;;;;;;;;;;5054920;28;20498;-78
2022/08/24 10:31:03;;;;;;;12.35;6.50;;;;;;;;;;5056034;28;20024;-75
2022/08/24 10:34:10;;;;;;;11.40;6.70;;;;;;;;;;5056550;28;20021;-77
2022/08/24 10:36:49;;;;;;;13.65;6.25;;;;;;;;;;5054690;28;20040;-77
2022/08/24 10:39:41;;;;;;;12.20;7.50;;;;;;;;;;5055682;28;20062;-77
2022/08/24 10:45:38;;;;;;;12.05;7.53;;;;;;;;;;5055766;28;20040;-76
2022/08/24 10:48:28;;;;;;;10.82;7.38;;;;;;;;;;5055324;28;20082;-76
2022/08/24 10:51:33;;;;;;;14.73;7.63;;;;;;;;;;5054200;28;20025;-76
2022/08/24 10:53:59;;;;;;;15.02;8.43;;;;;;;;;;5056010;28;20025;-76
2022/08/24 10:56:40;;;;;;;11.30;8.13;;;;;;;;;;5054244;28;20560;-76
2022/08/24 10:59:18;;;;;;;13.25;7.30;;;;;;;;;;5056002;28;20041;-75
2022/08/24 11:02:08;;;;;;;9.93;7.32;;;;;;;;;;5055499;28;20067;-76
2022/08/24 11:04:34;;;;;;;14.30;7.75;;;;;;;;;;5053902;28;20509;-76
2022/08/24 11:07:02;;;;;;;14.02;8.70;;;;;;;;;;5055312;28;20122;-76
2022/08/24 11:09:42;;;;;;;11.80;7.78;;;;;;;;;;5055195;28;20032;-76
2022/08/24 11:12:25;;;;;;;18.65;8.70;;;;;;;;;;5055040;28;20036;-76
2022/08/24 11:14:51;;;;;;;11.82;7.65;;;;;;;;;;5055638;28;20497;-76
2022/08/24 11:17:19;;;;;;;12.32;6.40;;;;;;;;;;5053925;28;20021;-74
2022/08/24 11:19:44;;;;;;;12.25;6.90;;;;;;;;;;5053789;28;20032;-76
2022/08/24 11:22:40;;;;;;;13.20;5.97;;;;;;;;;;5053666;28;20390;-76
2022/08/24 11:25:26;;;;;;;11.88;6.38;;;;;;;;;;5054416;28;20041;-76
2022/08/24 11:28:01;;;;;;;13.30;6.82;;;;;;;;;;5054936;28;20025;-76
2022/08/24 11:30:28;;;;;;;11.75;6.13;;;;;;;;;;5054801;28;20029;-76
2022/08/24 11:32:56;;;;;;;15.05;7.32;;;;;;;;;;5054677;28;20048;-76
2022/08/24 11:35:30;;;;;;;13.98;6.57;;;;;;;;;;5053196;28;20025;-76
2022/08/24 11:38:04;;;;;;;10.77;6.65;;;;;;;;;;5054560;28;20032;-77
2022/08/24 11:40:35;;;;;;;11.82;6.82;;;;;;;;;;5054849;28;20029;-76
2022/08/24 11:43:34;;;;;;;13.50;7.18;;;;;;;;;;5055040;28;20039;-76
2022/08/24 11:46:15;;;;;;;11.45;6.75;;;;;;;;;;5043057;28;20037;-76
2022/08/24 11:49:00;;;;;;;16.17;7.18;;;;;;;;;;5054805;28;20033;-76
2022/08/24 11:51:31;;;;;;;17.33;7.78;;;;;;;;;;5054950;28;20025;-76
2022/08/24 11:54:20;;;;;;;14.80;7.78;;;;;;;;;;5054754;28;20033;-76
2022/08/24 11:56:56;;;;;;;12.95;8.18;;;;;;;;;;5052996;28;20028;-76
2022/08/24 11:59:44;;;;;;;14.60;7.93;;;;;;;;;;5054650;28;20423;-76
2022/08/24 12:02:17;;;;;;;12.45;6.22;;;;;;;;;;5052828;28;20532;-76
2022/08/24 12:05:00;;;;;;;11.90;6.00;;;;;;;;;;5053932;28;20037;-75
2022/08/24 12:07:44;;;;;;;10.00;6.53;;;;;;;;;;5052828;28;20575;-75
2022/08/24 12:10:12;;;;;;;13.63;6.75;;;;;;;;;;5052596;28;20025;-74
2022/08/24 12:13:02;;;;;;;12.32;6.82;;;;;;;;;;5054302;28;20438;-77
2022/08/24 12:16:00;;;;;;;16.48;6.15;;;;;;;;;;5054089;28;20029;-76
2022/08/24 12:18:44;;;;;;;12.25;6.55;;;;;;;;;;5048619;28;20044;-76
2022/08/24 12:21:16;;;;;;;17.63;7.47;;;;;;;;;;5054022;28;20033;-76
2022/08/24 12:23:49;;;;;;;12.53;7.33;;;;;;;;;;5053621;28;20104;-76
2022/08/24 12:26:25;;;;;;;12.88;7.82;;;;;;;;;;5052254;28;20120;-75
2022/08/24 12:28:58;;;;;;;12.02;7.65;;;;;;;;;;5053703;28;20485;-75
2022/08/24 12:31:37;;;;;;;13.48;7.70;;;;;;;;;;5053860;28;20025;-74
2022/08/24 12:34:16;;;;;;;14.23;7.30;;;;;;;;;;5053627;28;20033;-76
2022/08/24 12:37:11;;;;;;;15.90;7.35;;;;;;;;;;5053801;28;20084;-77
2022/08/24 12:39:45;;;;;;;14.75;7.68;;;;;;;;;;5052181;28;20029;-75
2022/08/24 12:42:43;;;;;;;11.35;7.25;;;;;;;;;;5053628;28;20104;-76
2022/08/24 12:45:12;;;;;;;11.38;6.90;;;;;;;;;;5053277;28;20379;-74
2022/08/24 12:47:56;;;;;;;15.27;7.53;;;;;;;;;;5053337;28;20074;-77
2022/08/24 12:50:45;;;;;;;11.80;7.88;;;;;;;;;;5053483;28;20029;-76
2022/08/24 12:53:33;;;;;;;12.45;8.05;;;;;;;;;;5053483;28;20028;-76
2022/08/24 12:56:13;;;;;;;18.67;8.02;;;;;;;;;;5051723;28;20025;-76
2022/08/24 12:59:13;;;;;;;13.98;7.72;;;;;;;;;;5051848;28;20025;-76
2022/08/24 13:01:44;;;;;;;9.82;7.32;;;;;;;;;;5053052;28;20593;-76
2022/08/24 13:04:09;;;;;;;13.43;7.80;;;;;;;;;;5052679;28;20033;-76
2022/08/24 13:06:45;;;;;;;16.73;8.07;;;;;;;;;;5053086;28;20032;-76
2022/08/24 13:09:34;;;;;;;9.95;7.63;;;;;;;;;;5051043;28;20055;-76
2022/08/24 13:12:32;;;;;;;12.95;8.18;;;;;;;;;;5052997;28;20027;-76
2022/08/24 13:15:19;;;;;;;13.90;7.65;;;;;;;;;;5052766;28;20036;-76
2022/08/24 13:17:44;;;;;;;12.20;7.20;;;;;;;;;;5052808;28;20021;-76
2022/08/24 13:20:21;;;;;;;10.23;7.15;;;;;;;;;;5052780;28;20040;-76
2022/08/24 13:23:09;;;;;;;10.85;8.35;;;;;;;;;;5034926;28;20082;-75
2022/08/24 13:25:46;;;;;;;16.80;7.63;;;;;;;;;;5051944;28;20059;-75
2022/08/24 13:28:24;;;;;;;15.38;7.53;;;;;;;;;;5052563;28;20093;-76
2022/08/24 13:30:54;;;;;;;14.30;7.75;;;;;;;;;;5052931;28;20513;-77
2022/08/24 13:33:31;;;;;;;17.42;7.20;;;;;;;;;;5052960;28;20037;-76
2022/08/24 13:36:23;;;;;;;13.13;7.60;;;;;;;;;;5052697;28;20025;-76
2022/08/24 13:38:58;;;;;;;9.70;7.50;;;;;;;;;;5041024;28;20068;-76
2022/08/24 13:41:32;;;;;;;11.43;8.10;;;;;;;;;;5052864;28;20025;-76
2022/08/24 13:44:06;;;;;;;13.57;7.90;;;;;;;;;;5051444;28;20078;-76
2022/08/24 13:46:50;;;;;;;13.60;7.32;;;;;;;;;;5052555;28;20092;-75
2022/08/24 13:49:46;;;;;;;13.77;7.82;;;;;;;;;;5051401;28;20063;-76
2022/08/24 13:52:49;;;;;;;14.40;7.50;;;;;;;;;;5051644;28;20028;-76
2022/08/24 13:55:31;;;;;;;12.30;7.55;;;;;;;;;;5052549;28;20108;-75
2022/08/24 13:58:25;;;;;;;22.63;7.97;;;;;;;;;;5052626;28;20096;-76
2022/08/24 14:01:01;;;;;;;13.93;7.10;;;;;;;;;;5052053;28;20040;-76
2022/08/24 14:03:39;;;;;;;11.73;7.15;;;;;;;;;;5052795;28;20367;-76
2022/08/24 14:06:32;;;;;;;10.82;7.00;;;;;;;;;;5052548;28;20029;-76
2022/08/24 14:09:09;;;;;;;8.32;6.15;;;;;;;;;;5052872;28;20056;-76
2022/08/24 14:11:47;;;;;;;10.75;6.40;;;;;;;;;;5052940;28;20033;-75
2022/08/24 14:14:54;;;;;;;11.93;6.57;;;;;;;;;;5052426;28;20029;-76
2022/08/24 14:17:51;;;;;;;13.48;7.35;;;;;;;;;;5051968;28;20396;-76
2022/08/24 14:20:42;;;;;;;15.52;7.40;;;;;;;;;;5052895;28;20025;-76
2022/08/24 14:23:43;;;;;;;14.02;7.53;;;;;;;;;;5056061;28;20025;-77
2022/08/24 14:26:37;;;;;;;11.48;7.28;;;;;;;;;;5056005;28;20043;-76
2022/08/24 14:29:14;;;;;;;11.90;6.97;;;;;;;;;;5055912;28;20021;-76
2022/08/24 14:32:04;;;;;;;10.88;6.85;;;;;;;;;;5054567;28;20047;-76
2022/08/24 14:34:47;;;;;;;12.20;7.90;;;;;;;;;;5055215;28;20143;-76
2022/08/24 14:37:12;;;;;;;13.90;8.40;;;;;;;;;;5055819;28;20017;-76
2022/08/24 14:39:37;;;;;;;14.27;7.37;;;;;;;;;;5054551;28;20031;-76
2022/08/24 14:42:16;;;;;;;14.03;8.67;;;;;;;;;;5055818;28;20036;-76
2022/08/24 14:44:53;;;;;;;13.50;8.60;;;;;;;;;;5054326;28;20101;-76
2022/08/24 14:47:42;;;;;;;13.88;8.77;;;;;;;;;;5055438;28;20029;-76
2022/08/24 14:50:21;;;;;;;16.48;8.88;;;;;;;;;;5055850;28;20482;-77
2022/08/24 14:53:00;;;;;;;12.27;8.98;;;;;;;;;;5055702;28;20035;-76
2022/08/24 14:55:37;;;;;;;18.17;8.82;;;;;;;;;;5055695;28;20430;-76
2022/08/24 14:58:26;;;;;;;15.38;8.57;;;;;;;;;;5055952;28;20405;-75
2022/08/24 15:01:10;;;;;;;11.65;7.72;;;;;;;;;;5055642;28;20056;-76
2022/08/24 15:03:58;;;;;;;14.65;7.95;;;;;;;;;;5055629;28;20158;-76
2022/08/24 15:06:39;;;;;;;14.45;8.20;;;;;;;;;;5055069;28;20029;-77
2022/08/24 15:09:18;;;;;;;13.52;8.13;;;;;;;;;;5055570;28;20021;-76
2022/08/24 15:11:46;;;;;;;14.32;8.93;;;;;;;;;;5055534;28;20032;-77
2022/08/24 15:14:21;;;;;;;13.15;8.68;;;;;;;;;;5055084;28;20422;-76
2022/08/24 15:16:51;;;;;;;15.60;8.60;;;;;;;;;;5055156;28;20028;-76
2022/08/24 15:19:19;;;;;;;16.38;7.85;;;;;;;;;;5054005;28;20098;-76
2022/08/24 15:21:59;;;;;;;17.67;8.30;;;;;;;;;;5055113;28;20039;-76